sensor_id;sensor_type;location;lat;lon;timestamp;P1;durP1;ratioP1;P2;durP2;ratioP2
8694;SDS011;65580;49.446;6.854;2023-11-21T00:03:18;5.60;;;2.08;;
8694;SDS011;65580;49.446;6.854;2023-11-21T00:07:21;8.95;;;2.45;;
8694;SDS011;65580;49.446;6.854;2023-11-21T00:11:24;7.65;;;2.90;;
8694;SDS011;65580;49.446;6.854;2023-11-21T00:15:28;9.73;;;2.25;;
8694;SDS011;65580;49.446;6.854;2023-11-21T00:19:31;5.85;;;2.22;;
8694;SDS011;65580;49.446;6.854;2023-11-21T00:23:34;6.53;;;2.08;;
8694;SDS011;65580;49.446;6.854;2023-11-21T00:27:37;5.10;;;2.90;;
8694;SDS011;65580;49.446;6.854;2023-11-21T00:31:42;6.63;;;2.55;;
8694;SDS011;65580;49.446;6.854;2023-11-21T00:35:45;8.07;;;2.63;;
8694;SDS011;65580;49.446;6.854;2023-11-21T00:39:47;7.63;;;2.75;;
8694;SDS011;65580;49.446;6.854;2023-11-21T00:43:50;6.13;;;3.33;;
8694;SDS011;65580;49.446;6.854;2023-11-21T00:47:55;10.35;;;4.00;;
8694;SDS011;65580;49.446;6.854;2023-11-21T00:51:59;10.23;;;3.90;;
8694;SDS011;65580;49.446;6.854;2023-11-21T00:56:03;7.07;;;3.35;;
8694;SDS011;65580;49.446;6.854;2023-11-21T01:00:06;15.35;;;4.93;;
8694;SDS011;65580;49.446;6.854;2023-11-21T01:04:12;15.60;;;4.80;;
8694;SDS011;65580;49.446;6.854;2023-11-21T01:08:15;10.00;;;4.75;;
8694;SDS011;65580;49.446;6.854;2023-11-21T01:12:17;10.38;;;4.47;;
8694;SDS011;65580;49.446;6.854;2023-11-21T01:16:20;12.02;;;4.70;;
8694;SDS011;65580;49.446;6.854;2023-11-21T01:20:25;10.10;;;4.20;;
8694;SDS011;65580;49.446;6.854;2023-11-21T01:24:28;15.73;;;4.60;;
8694;SDS011;65580;49.446;6.854;2023-11-21T01:28:31;13.65;;;5.15;;
8694;SDS011;65580;49.446;6.854;2023-11-21T01:32:34;9.93;;;5.07;;
8694;SDS011;65580;49.446;6.854;2023-11-21T01:36:38;9.80;;;5.40;;
8694;SDS011;65580;49.446;6.854;2023-11-21T01:40:41;12.05;;;4.78;;
8694;SDS011;65580;49.446;6.854;2023-11-21T01:44:44;9.93;;;5.05;;
8694;SDS011;65580;49.446;6.854;2023-11-21T01:48:48;10.55;;;4.30;;
8694;SDS011;65580;49.446;6.854;2023-11-21T01:52:52;7.25;;;3.60;;
8694;SDS011;65580;49.446;6.854;2023-11-21T01:56:55;6.28;;;3.47;;
8694;SDS011;65580;49.446;6.854;2023-11-21T02:01:00;9.50;;;4.38;;
8694;SDS011;65580;49.446;6.854;2023-11-21T02:05:04;10.32;;;4.78;;
8694;SDS011;65580;49.446;6.854;2023-11-21T02:09:08;8.77;;;3.78;;
8694;SDS011;65580;49.446;6.854;2023-11-21T02:13:11;7.68;;;4.40;;
8694;SDS011;65580;49.446;6.854;2023-11-21T02:17:14;7.57;;;4.13;;
8694;SDS011;65580;49.446;6.854;2023-11-21T02:21:16;8.18;;;4.20;;
8694;SDS011;65580;49.446;6.854;2023-11-21T02:25:21;8.10;;;4.03;;
8694;SDS011;65580;49.446;6.854;2023-11-21T02:29:24;7.00;;;4.28;;
8694;SDS011;65580;49.446;6.854;2023-11-21T02:33:29;12.90;;;5.50;;
8694;SDS011;65580;49.446;6.854;2023-11-21T02:37:35;12.85;;;5.13;;
8694;SDS011;65580;49.446;6.854;2023-11-21T02:41:39;10.57;;;4.85;;
8694;SDS011;65580;49.446;6.854;2023-11-21T02:45:42;6.80;;;4.20;;
8694;SDS011;65580;49.446;6.854;2023-11-21T02:49:45;6.20;;;3.70;;
8694;SDS011;65580;49.446;6.854;2023-11-21T02:53:48;22.42;;;5.32;;
8694;SDS011;65580;49.446;6.854;2023-11-21T02:57:53;9.13;;;4.70;;
8694;SDS011;65580;49.446;6.854;2023-11-21T03:01:57;10.45;;;4.72;;
8694;SDS011;65580;49.446;6.854;2023-11-21T03:06:00;9.60;;;4.35;;
8694;SDS011;65580;49.446;6.854;2023-11-21T03:10:04;10.52;;;4.80;;
8694;SDS011;65580;49.446;6.854;2023-11-21T03:14:12;8.38;;;4.20;;
8694;SDS011;65580;49.446;6.854;2023-11-21T03:18:15;6.07;;;3.67;;
8694;SDS011;65580;49.446;6.854;2023-11-21T03:22:18;7.05;;;4.13;;
8694;SDS011;65580;49.446;6.854;2023-11-21T03:26:21;9.40;;;4.18;;
8694;SDS011;65580;49.446;6.854;2023-11-21T03:30:26;7.32;;;3.67;;
8694;SDS011;65580;49.446;6.854;2023-11-21T03:34:28;16.75;;;4.47;;
8694;SDS011;65580;49.446;6.854;2023-11-21T03:38:31;6.82;;;3.47;;
8694;SDS011;65580;49.446;6.854;2023-11-21T03:42:34;9.98;;;3.67;;
8694;SDS011;65580;49.446;6.854;2023-11-21T03:46:39;6.47;;;3.40;;
8694;SDS011;65580;49.446;6.854;2023-11-21T03:50:41;11.68;;;3.28;;
8694;SDS011;65580;49.446;6.854;2023-11-21T03:54:44;7.68;;;3.17;;
8694;SDS011;65580;49.446;6.854;2023-11-21T03:58:47;10.95;;;3.22;;
8694;SDS011;65580;49.446;6.854;2023-11-21T04:02:52;5.80;;;2.85;;
8694;SDS011;65580;49.446;6.854;2023-11-21T04:06:55;4.40;;;2.50;;
8694;SDS011;65580;49.446;6.854;2023-11-21T04:10:58;8.88;;;3.00;;
8694;SDS011;65580;49.446;6.854;2023-11-21T04:15:02;6.25;;;2.88;;
8694;SDS011;65580;49.446;6.854;2023-11-21T04:19:07;9.38;;;3.05;;
8694;SDS011;65580;49.446;6.854;2023-11-21T04:23:11;6.53;;;2.63;;
8694;SDS011;65580;49.446;6.854;2023-11-21T04:27:15;5.38;;;2.38;;
8694;SDS011;65580;49.446;6.854;2023-11-21T04:31:19;5.43;;;2.22;;
8694;SDS011;65580;49.446;6.854;2023-11-21T04:35:24;5.40;;;2.53;;
8694;SDS011;65580;49.446;6.854;2023-11-21T04:39:26;8.95;;;2.05;;
8694;SDS011;65580;49.446;6.854;2023-11-21T04:43:29;5.00;;;2.10;;
8694;SDS011;65580;49.446;6.854;2023-11-21T04:47:32;3.55;;;2.20;;
8694;SDS011;65580;49.446;6.854;2023-11-21T04:51:36;3.83;;;2.30;;
8694;SDS011;65580;49.446;6.854;2023-11-21T04:55:39;5.43;;;2.33;;
8694;SDS011;65580;49.446;6.854;2023-11-21T04:59:43;4.97;;;2.20;;
8694;SDS011;65580;49.446;6.854;2023-11-21T05:03:46;4.28;;;1.77;;
8694;SDS011;65580;49.446;6.854;2023-11-21T05:07:52;6.75;;;1.63;;
8694;SDS011;65580;49.446;6.854;2023-11-21T05:11:55;6.25;;;1.60;;
8694;SDS011;65580;49.446;6.854;2023-11-21T05:15:58;3.85;;;1.55;;
8694;SDS011;65580;49.446;6.854;2023-11-21T05:20:01;3.28;;;1.40;;
8694;SDS011;65580;49.446;6.854;2023-11-21T05:24:07;11.40;;;1.65;;
8694;SDS011;65580;49.446;6.854;2023-11-21T05:28:10;5.50;;;1.58;;
8694;SDS011;65580;49.446;6.854;2023-11-21T05:32:13;3.40;;;1.27;;
8694;SDS011;65580;49.446;6.854;2023-11-21T05:36:16;4.55;;;1.52;;
8694;SDS011;65580;49.446;6.854;2023-11-21T05:40:20;4.32;;;2.50;;
8694;SDS011;65580;49.446;6.854;2023-11-21T05:44:24;6.20;;;2.90;;
8694;SDS011;65580;49.446;6.854;2023-11-21T05:48:27;4.70;;;2.08;;
8694;SDS011;65580;49.446;6.854;2023-11-21T05:52:31;4.20;;;2.10;;
8694;SDS011;65580;49.446;6.854;2023-11-21T05:56:36;4.35;;;1.80;;
8694;SDS011;65580;49.446;6.854;2023-11-21T06:00:39;2.78;;;1.70;;
8694;SDS011;65580;49.446;6.854;2023-11-21T06:04:43;6.78;;;2.55;;
8694;SDS011;65580;49.446;6.854;2023-11-21T06:08:46;6.50;;;2.60;;
8694;SDS011;65580;49.446;6.854;2023-11-21T06:12:51;5.60;;;2.78;;
8694;SDS011;65580;49.446;6.854;2023-11-21T06:16:55;5.65;;;3.17;;
8694;SDS011;65580;49.446;6.854;2023-11-21T06:20:59;9.35;;;3.92;;
8694;SDS011;65580;49.446;6.854;2023-11-21T06:25:02;9.90;;;4.00;;
8694;SDS011;65580;49.446;6.854;2023-11-21T06:29:07;7.95;;;3.38;;
8694;SDS011;65580;49.446;6.854;2023-11-21T06:33:10;9.43;;;3.60;;
8694;SDS011;65580;49.446;6.854;2023-11-21T06:37:13;9.85;;;3.92;;
8694;SDS011;65580;49.446;6.854;2023-11-21T06:41:17;10.10;;;4.10;;
8694;SDS011;65580;49.446;6.854;2023-11-21T06:45:21;16.55;;;4.65;;
8694;SDS011;65580;49.446;6.854;2023-11-21T06:49:24;11.13;;;4.93;;
8694;SDS011;65580;49.446;6.854;2023-11-21T06:53:27;18.77;;;6.07;;
8694;SDS011;65580;49.446;6.854;2023-11-21T06:57:30;10.40;;;4.38;;
8694;SDS011;65580;49.446;6.854;2023-11-21T07:01:35;12.40;;;4.75;;
8694;SDS011;65580;49.446;6.854;2023-11-21T07:05:40;13.10;;;4.47;;
8694;SDS011;65580;49.446;6.854;2023-11-21T07:09:43;12.13;;;4.95;;
8694;SDS011;65580;49.446;6.854;2023-11-21T07:13:46;10.10;;;4.28;;
8694;SDS011;65580;49.446;6.854;2023-11-21T07:17:51;17.55;;;5.40;;
8694;SDS011;65580;49.446;6.854;2023-11-21T07:21:55;12.65;;;4.40;;
8694;SDS011;65580;49.446;6.854;2023-11-21T07:25:58;11.55;;;4.43;;
8694;SDS011;65580;49.446;6.854;2023-11-21T07:30:01;12.13;;;4.60;;
8694;SDS011;65580;49.446;6.854;2023-11-21T07:34:07;13.68;;;4.82;;
8694;SDS011;65580;49.446;6.854;2023-11-21T07:38:11;17.55;;;6.03;;
8694;SDS011;65580;49.446;6.854;2023-11-21T07:42:14;21.67;;;6.85;;
8694;SDS011;65580;49.446;6.854;2023-11-21T07:46:18;14.60;;;5.95;;
8694;SDS011;65580;49.446;6.854;2023-11-21T07:50:22;13.68;;;5.70;;
8694;SDS011;65580;49.446;6.854;2023-11-21T07:54:25;16.58;;;5.95;;
8694;SDS011;65580;49.446;6.854;2023-11-21T07:58:29;16.58;;;5.90;;
8694;SDS011;65580;49.446;6.854;2023-11-21T08:02:32;12.18;;;5.55;;
8694;SDS011;65580;49.446;6.854;2023-11-21T08:06:37;15.32;;;5.35;;
8694;SDS011;65580;49.446;6.854;2023-11-21T08:10:40;12.55;;;6.45;;
8694;SDS011;65580;49.446;6.854;2023-11-21T08:14:43;20.23;;;6.60;;
8694;SDS011;65580;49.446;6.854;2023-11-21T08:18:46;15.00;;;6.22;;
8694;SDS011;65580;49.446;6.854;2023-11-21T08:22:50;12.48;;;5.60;;
8694;SDS011;65580;49.446;6.854;2023-11-21T08:26:54;16.48;;;4.80;;
8694;SDS011;65580;49.446;6.854;2023-11-21T08:30:57;12.45;;;4.32;;
8694;SDS011;65580;49.446;6.854;2023-11-21T08:35:00;8.88;;;3.47;;
8694;SDS011;65580;49.446;6.854;2023-11-21T08:39:05;9.10;;;3.50;;
8694;SDS011;65580;49.446;6.854;2023-11-21T08:43:08;9.68;;;3.85;;
8694;SDS011;65580;49.446;6.854;2023-11-21T08:47:13;8.32;;;3.65;;
8694;SDS011;65580;49.446;6.854;2023-11-21T08:51:16;6.00;;;2.67;;
8694;SDS011;65580;49.446;6.854;2023-11-21T08:55:20;4.82;;;2.30;;
8694;SDS011;65580;49.446;6.854;2023-11-21T08:59:23;8.43;;;2.47;;
8694;SDS011;65580;49.446;6.854;2023-11-21T09:03:26;6.22;;;2.75;;
8694;SDS011;65580;49.446;6.854;2023-11-21T09:07:30;5.97;;;2.75;;
8694;SDS011;65580;49.446;6.854;2023-11-21T09:11:34;4.60;;;2.60;;
8694;SDS011;65580;49.446;6.854;2023-11-21T09:15:37;6.00;;;2.70;;
8694;SDS011;65580;49.446;6.854;2023-11-21T09:19:40;5.88;;;2.55;;
8694;SDS011;65580;49.446;6.854;2023-11-21T09:23:43;5.63;;;2.70;;
8694;SDS011;65580;49.446;6.854;2023-11-21T09:27:48;5.00;;;2.78;;
8694;SDS011;65580;49.446;6.854;2023-11-21T09:31:51;6.00;;;2.60;;
8694;SDS011;65580;49.446;6.854;2023-11-21T09:35:56;6.05;;;2.78;;
8694;SDS011;65580;49.446;6.854;2023-11-21T09:39:59;5.20;;;2.85;;
8694;SDS011;65580;49.446;6.854;2023-11-21T09:44:05;8.07;;;2.40;;
8694;SDS011;65580;49.446;6.854;2023-11-21T09:48:09;6.32;;;2.50;;
8694;SDS011;65580;49.446;6.854;2023-11-21T09:52:13;5.00;;;2.33;;
8694;SDS011;65580;49.446;6.854;2023-11-21T09:56:20;3.35;;;2.35;;
8694;SDS011;65580;49.446;6.854;2023-11-21T10:00:26;3.80;;;2.28;;
8694;SDS011;65580;49.446;6.854;2023-11-21T10:04:29;5.32;;;2.53;;
8694;SDS011;65580;49.446;6.854;2023-11-21T10:08:34;4.03;;;2.60;;
8694;SDS011;65580;49.446;6.854;2023-11-21T10:12:50;4.38;;;2.25;;
8694;SDS011;65580;49.446;6.854;2023-11-21T10:16:59;5.55;;;2.20;;
8694;SDS011;65580;49.446;6.854;2023-11-21T10:21:04;4.03;;;2.20;;
8694;SDS011;65580;49.446;6.854;2023-11-21T10:25:10;4.93;;;2.30;;
8694;SDS011;65580;49.446;6.854;2023-11-21T10:29:16;4.82;;;2.38;;
8694;SDS011;65580;49.446;6.854;2023-11-21T10:33:26;4.28;;;2.40;;
8694;SDS011;65580;49.446;6.854;2023-11-21T10:37:31;4.75;;;2.30;;
8694;SDS011;65580;49.446;6.854;2023-11-21T10:41:34;4.82;;;2.70;;
8694;SDS011;65580;49.446;6.854;2023-11-21T10:45:38;5.97;;;2.38;;
8694;SDS011;65580;49.446;6.854;2023-11-21T10:49:46;3.25;;;2.38;;
8694;SDS011;65580;49.446;6.854;2023-11-21T10:53:51;5.40;;;2.28;;
8694;SDS011;65580;49.446;6.854;2023-11-21T10:57:54;6.00;;;2.63;;
8694;SDS011;65580;49.446;6.854;2023-11-21T11:02:01;4.75;;;2.70;;
8694;SDS011;65580;49.446;6.854;2023-11-21T11:06:07;7.35;;;2.50;;
8694;SDS011;65580;49.446;6.854;2023-11-21T11:10:13;6.65;;;2.63;;
8694;SDS011;65580;49.446;6.854;2023-11-21T11:14:16;5.43;;;2.75;;
8694;SDS011;65580;49.446;6.854;2023-11-21T11:18:21;6.78;;;2.50;;
8694;SDS011;65580;49.446;6.854;2023-11-21T11:26:32;6.97;;;2.85;;
8694;SDS011;65580;49.446;6.854;2023-11-21T11:34:49;6.15;;;2.78;;
8694;SDS011;65580;49.446;6.854;2023-11-21T11:38:58;4.70;;;3.17;;
8694;SDS011;65580;49.446;6.854;2023-11-21T11:43:02;8.38;;;3.08;;
8694;SDS011;65580;49.446;6.854;2023-11-21T11:47:12;6.38;;;3.08;;
8694;SDS011;65580;49.446;6.854;2023-11-21T11:51:19;8.55;;;3.28;;
8694;SDS011;65580;49.446;6.854;2023-11-21T11:55:24;5.65;;;2.70;;
8694;SDS011;65580;49.446;6.854;2023-11-21T11:59:37;5.30;;;3.38;;
8694;SDS011;65580;49.446;6.854;2023-11-21T12:04:23;4.85;;;3.25;;
8694;SDS011;65580;49.446;6.854;2023-11-21T12:08:34;4.78;;;3.08;;
8694;SDS011;65580;49.446;6.854;2023-11-21T12:12:41;4.65;;;2.90;;
8694;SDS011;65580;49.446;6.854;2023-11-21T12:16:45;5.70;;;3.05;;
8694;SDS011;65580;49.446;6.854;2023-11-21T12:20:47;6.20;;;3.30;;
8694;SDS011;65580;49.446;6.854;2023-11-21T12:24:52;6.93;;;2.92;;
8694;SDS011;65580;49.446;6.854;2023-11-21T12:28:56;4.70;;;3.00;;
8694;SDS011;65580;49.446;6.854;2023-11-21T12:33:00;4.53;;;2.78;;
8694;SDS011;65580;49.446;6.854;2023-11-21T12:37:03;10.57;;;3.30;;
8694;SDS011;65580;49.446;6.854;2023-11-21T12:41:06;8.02;;;3.42;;
8694;SDS011;65580;49.446;6.854;2023-11-21T12:45:19;6.80;;;3.42;;
8694;SDS011;65580;49.446;6.854;2023-11-21T12:49:22;5.65;;;3.20;;
8694;SDS011;65580;49.446;6.854;2023-11-21T12:53:26;8.82;;;2.95;;
8694;SDS011;65580;49.446;6.854;2023-11-21T12:57:37;4.85;;;2.97;;
8694;SDS011;65580;49.446;6.854;2023-11-21T13:01:42;7.18;;;3.53;;
8694;SDS011;65580;49.446;6.854;2023-11-21T13:05:50;5.13;;;3.50;;
8694;SDS011;65580;49.446;6.854;2023-11-21T13:09:55;8.20;;;3.53;;
8694;SDS011;65580;49.446;6.854;2023-11-21T13:13:58;10.02;;;3.30;;
8694;SDS011;65580;49.446;6.854;2023-11-21T13:18:04;8.52;;;3.22;;
8694;SDS011;65580;49.446;6.854;2023-11-21T13:22:07;6.68;;;3.30;;
8694;SDS011;65580;49.446;6.854;2023-11-21T13:26:15;7.78;;;3.70;;
8694;SDS011;65580;49.446;6.854;2023-11-21T13:30:21;7.93;;;3.40;;
8694;SDS011;65580;49.446;6.854;2023-11-21T13:34:30;7.43;;;3.40;;
8694;SDS011;65580;49.446;6.854;2023-11-21T13:38:34;8.82;;;3.67;;
8694;SDS011;65580;49.446;6.854;2023-11-21T13:42:39;7.10;;;3.20;;
8694;SDS011;65580;49.446;6.854;2023-11-21T13:46:42;5.55;;;3.28;;
8694;SDS011;65580;49.446;6.854;2023-11-21T13:50:49;6.60;;;3.78;;
8694;SDS011;65580;49.446;6.854;2023-11-21T13:55:07;10.95;;;3.47;;
8694;SDS011;65580;49.446;6.854;2023-11-21T13:59:16;9.85;;;3.58;;
8694;SDS011;65580;49.446;6.854;2023-11-21T14:03:29;8.30;;;3.95;;
8694;SDS011;65580;49.446;6.854;2023-11-21T14:07:46;5.03;;;3.20;;
8694;SDS011;65580;49.446;6.854;2023-11-21T14:11:52;8.18;;;3.55;;
8694;SDS011;65580;49.446;6.854;2023-11-21T14:16:02;9.32;;;4.13;;
8694;SDS011;65580;49.446;6.854;2023-11-21T14:20:08;8.40;;;3.80;;
8694;SDS011;65580;49.446;6.854;2023-11-21T14:24:19;7.68;;;3.75;;
8694;SDS011;65580;49.446;6.854;2023-11-21T14:28:39;9.80;;;3.80;;
8694;SDS011;65580;49.446;6.854;2023-11-21T14:32:43;8.40;;;3.78;;
8694;SDS011;65580;49.446;6.854;2023-11-21T14:36:46;7.72;;;3.53;;
8694;SDS011;65580;49.446;6.854;2023-11-21T14:40:52;9.23;;;4.55;;
8694;SDS011;65580;49.446;6.854;2023-11-21T14:44:55;7.93;;;3.78;;
8694;SDS011;65580;49.446;6.854;2023-11-21T14:49:01;6.97;;;3.83;;
8694;SDS011;65580;49.446;6.854;2023-11-21T14:53:20;11.02;;;4.40;;
8694;SDS011;65580;49.446;6.854;2023-11-21T14:57:46;7.47;;;4.13;;
8694;SDS011;65580;49.446;6.854;2023-11-21T15:01:52;6.53;;;3.53;;
8694;SDS011;65580;49.446;6.854;2023-11-21T15:05:56;7.57;;;3.78;;
8694;SDS011;65580;49.446;6.854;2023-11-21T15:09:59;7.80;;;3.47;;
8694;SDS011;65580;49.446;6.854;2023-11-21T15:14:03;7.22;;;3.88;;
8694;SDS011;65580;49.446;6.854;2023-11-21T15:18:10;5.95;;;3.30;;
8694;SDS011;65580;49.446;6.854;2023-11-21T15:22:14;7.68;;;3.65;;
8694;SDS011;65580;49.446;6.854;2023-11-21T15:26:17;9.45;;;3.58;;
8694;SDS011;65580;49.446;6.854;2023-11-21T15:30:21;6.88;;;3.58;;
8694;SDS011;65580;49.446;6.854;2023-11-21T15:34:27;7.85;;;3.88;;
8694;SDS011;65580;49.446;6.854;2023-11-21T15:38:32;10.68;;;3.80;;
8694;SDS011;65580;49.446;6.854;2023-11-21T15:42:35;9.15;;;3.75;;
8694;SDS011;65580;49.446;6.854;2023-11-21T15:50:44;8.82;;;3.80;;
8694;SDS011;65580;49.446;6.854;2023-11-21T15:54:48;7.75;;;4.00;;
8694;SDS011;65580;49.446;6.854;2023-11-21T15:58:51;7.88;;;3.42;;
8694;SDS011;65580;49.446;6.854;2023-11-21T16:02:55;7.93;;;3.55;;
8694;SDS011;65580;49.446;6.854;2023-11-21T16:06:59;10.85;;;3.80;;
8694;SDS011;65580;49.446;6.854;2023-11-21T16:11:03;7.10;;;3.35;;
8694;SDS011;65580;49.446;6.854;2023-11-21T16:15:07;10.90;;;3.47;;
8694;SDS011;65580;49.446;6.854;2023-11-21T16:19:13;17.55;;;3.60;;
8694;SDS011;65580;49.446;6.854;2023-11-21T16:23:16;11.88;;;4.00;;
8694;SDS011;65580;49.446;6.854;2023-11-21T16:27:19;7.97;;;3.80;;
8694;SDS011;65580;49.446;6.854;2023-11-21T16:31:22;9.32;;;4.03;;
8694;SDS011;65580;49.446;6.854;2023-11-21T16:35:27;7.88;;;3.83;;
8694;SDS011;65580;49.446;6.854;2023-11-21T16:39:30;11.48;;;3.58;;
8694;SDS011;65580;49.446;6.854;2023-11-21T16:43:33;9.65;;;4.25;;
8694;SDS011;65580;49.446;6.854;2023-11-21T16:47:36;10.95;;;3.67;;
8694;SDS011;65580;49.446;6.854;2023-11-21T16:51:43;10.30;;;4.20;;
8694;SDS011;65580;49.446;6.854;2023-11-21T16:55:59;10.90;;;4.00;;
8694;SDS011;65580;49.446;6.854;2023-11-21T17:00:03;7.25;;;3.40;;
8694;SDS011;65580;49.446;6.854;2023-11-21T17:04:08;9.57;;;4.32;;
8694;SDS011;65580;49.446;6.854;2023-11-21T17:08:14;13.85;;;4.65;;
8694;SDS011;65580;49.446;6.854;2023-11-21T17:12:18;9.82;;;3.72;;
8694;SDS011;65580;49.446;6.854;2023-11-21T17:20:24;8.88;;;3.75;;
8694;SDS011;65580;49.446;6.854;2023-11-21T17:24:29;10.13;;;4.40;;
8694;SDS011;65580;49.446;6.854;2023-11-21T17:28:35;9.95;;;3.85;;
8694;SDS011;65580;49.446;6.854;2023-11-21T17:36:43;9.38;;;4.00;;
8694;SDS011;65580;49.446;6.854;2023-11-21T17:40:48;7.70;;;4.15;;
8694;SDS011;65580;49.446;6.854;2023-11-21T17:44:51;10.48;;;4.47;;
8694;SDS011;65580;49.446;6.854;2023-11-21T17:48:54;10.25;;;4.18;;
8694;SDS011;65580;49.446;6.854;2023-11-21T17:52:57;10.60;;;4.50;;
8694;SDS011;65580;49.446;6.854;2023-11-21T17:57:02;8.73;;;4.30;;
8694;SDS011;65580;49.446;6.854;2023-11-21T18:01:07;8.32;;;4.70;;
8694;SDS011;65580;49.446;6.854;2023-11-21T18:05:11;14.07;;;4.45;;
8694;SDS011;65580;49.446;6.854;2023-11-21T18:09:15;12.65;;;5.15;;
8694;SDS011;65580;49.446;6.854;2023-11-21T18:13:20;22.38;;;8.20;;
8694;SDS011;65580;49.446;6.854;2023-11-21T18:17:23;23.73;;;8.50;;
8694;SDS011;65580;49.446;6.854;2023-11-21T18:21:27;22.60;;;6.85;;
8694;SDS011;65580;49.446;6.854;2023-11-21T18:25:30;16.95;;;6.47;;
8694;SDS011;65580;49.446;6.854;2023-11-21T18:29:34;14.45;;;6.03;;
8694;SDS011;65580;49.446;6.854;2023-11-21T18:33:37;30.27;;;10.45;;
8694;SDS011;65580;49.446;6.854;2023-11-21T18:37:41;18.98;;;8.88;;
8694;SDS011;65580;49.446;6.854;2023-11-21T18:41:45;22.55;;;10.25;;
8694;SDS011;65580;49.446;6.854;2023-11-21T18:45:50;26.98;;;10.82;;
8694;SDS011;65580;49.446;6.854;2023-11-21T18:49:53;28.33;;;11.50;;
8694;SDS011;65580;49.446;6.854;2023-11-21T18:53:57;24.73;;;10.63;;
8694;SDS011;65580;49.446;6.854;2023-11-21T18:58:00;22.85;;;9.27;;
8694;SDS011;65580;49.446;6.854;2023-11-21T19:02:12;16.83;;;6.60;;
8694;SDS011;65580;49.446;6.854;2023-11-21T19:06:16;16.95;;;6.97;;
8694;SDS011;65580;49.446;6.854;2023-11-21T19:10:23;13.35;;;6.93;;
8694;SDS011;65580;49.446;6.854;2023-11-21T19:14:28;15.75;;;6.72;;
8694;SDS011;65580;49.446;6.854;2023-11-21T19:18:33;18.65;;;7.60;;
8694;SDS011;65580;49.446;6.854;2023-11-21T19:22:37;18.42;;;8.25;;
8694;SDS011;65580;49.446;6.854;2023-11-21T19:26:41;27.08;;;8.93;;
8694;SDS011;65580;49.446;6.854;2023-11-21T19:30:46;23.85;;;8.27;;
8694;SDS011;65580;49.446;6.854;2023-11-21T19:34:50;18.33;;;8.98;;
8694;SDS011;65580;49.446;6.854;2023-11-21T19:38:54;26.52;;;9.45;;
8694;SDS011;65580;49.446;6.854;2023-11-21T19:42:57;18.83;;;8.57;;
8694;SDS011;65580;49.446;6.854;2023-11-21T19:47:00;21.15;;;9.13;;
8694;SDS011;65580;49.446;6.854;2023-11-21T19:51:05;23.83;;;10.05;;
8694;SDS011;65580;49.446;6.854;2023-11-21T19:55:13;19.42;;;8.85;;
8694;SDS011;65580;49.446;6.854;2023-11-21T19:59:19;19.17;;;9.45;;
8694;SDS011;65580;49.446;6.854;2023-11-21T20:03:25;34.67;;;11.63;;
8694;SDS011;65580;49.446;6.854;2023-11-21T20:07:30;23.58;;;10.10;;
8694;SDS011;65580;49.446;6.854;2023-11-21T20:11:34;25.83;;;9.98;;
8694;SDS011;65580;49.446;6.854;2023-11-21T20:15:37;25.75;;;9.95;;
8694;SDS011;65580;49.446;6.854;2023-11-21T20:19:58;22.90;;;9.25;;
8694;SDS011;65580;49.446;6.854;2023-11-21T20:24:03;25.65;;;11.07;;
8694;SDS011;65580;49.446;6.854;2023-11-21T20:28:07;25.13;;;11.07;;
8694;SDS011;65580;49.446;6.854;2023-11-21T20:36:26;27.30;;;10.68;;
8694;SDS011;65580;49.446;6.854;2023-11-21T20:40:31;26.98;;;11.07;;
8694;SDS011;65580;49.446;6.854;2023-11-21T20:44:39;32.40;;;11.73;;
8694;SDS011;65580;49.446;6.854;2023-11-21T20:48:43;31.02;;;11.40;;
8694;SDS011;65580;49.446;6.854;2023-11-21T20:52:47;27.80;;;11.40;;
8694;SDS011;65580;49.446;6.854;2023-11-21T20:56:52;31.83;;;12.32;;
8694;SDS011;65580;49.446;6.854;2023-11-21T21:00:55;39.20;;;13.52;;
8694;SDS011;65580;49.446;6.854;2023-11-21T21:05:04;30.70;;;12.73;;
8694;SDS011;65580;49.446;6.854;2023-11-21T21:09:08;27.40;;;11.90;;
8694;SDS011;65580;49.446;6.854;2023-11-21T21:17:20;29.55;;;12.07;;
8694;SDS011;65580;49.446;6.854;2023-11-21T21:21:24;37.20;;;15.32;;
8694;SDS011;65580;49.446;6.854;2023-11-21T21:25:29;32.15;;;13.77;;
8694;SDS011;65580;49.446;6.854;2023-11-21T21:29:34;30.90;;;13.00;;
8694;SDS011;65580;49.446;6.854;2023-11-21T21:33:38;33.33;;;13.80;;
8694;SDS011;65580;49.446;6.854;2023-11-21T21:37:42;26.52;;;11.93;;
8694;SDS011;65580;49.446;6.854;2023-11-21T21:41:46;29.67;;;13.05;;
8694;SDS011;65580;49.446;6.854;2023-11-21T21:45:51;43.45;;;14.65;;
8694;SDS011;65580;49.446;6.854;2023-11-21T21:49:54;30.52;;;12.77;;
8694;SDS011;65580;49.446;6.854;2023-11-21T21:53:58;44.42;;;15.10;;
8694;SDS011;65580;49.446;6.854;2023-11-21T21:58:02;30.13;;;11.05;;
8694;SDS011;65580;49.446;6.854;2023-11-21T22:02:07;26.98;;;11.35;;
8694;SDS011;65580;49.446;6.854;2023-11-21T22:06:10;27.00;;;11.32;;
8694;SDS011;65580;49.446;6.854;2023-11-21T22:10:14;27.77;;;11.15;;
8694;SDS011;65580;49.446;6.854;2023-11-21T22:14:18;28.65;;;11.48;;
8694;SDS011;65580;49.446;6.854;2023-11-21T22:18:22;24.42;;;10.48;;
8694;SDS011;65580;49.446;6.854;2023-11-21T22:26:32;28.02;;;10.82;;
8694;SDS011;65580;49.446;6.854;2023-11-21T22:30:35;59.33;;;14.32;;
8694;SDS011;65580;49.446;6.854;2023-11-21T22:34:40;31.63;;;11.93;;
8694;SDS011;65580;49.446;6.854;2023-11-21T22:38:43;21.88;;;9.68;;
8694;SDS011;65580;49.446;6.854;2023-11-21T22:42:47;28.25;;;10.18;;
8694;SDS011;65580;49.446;6.854;2023-11-21T22:46:50;24.65;;;9.80;;
8694;SDS011;65580;49.446;6.854;2023-11-21T22:50:55;21.92;;;9.85;;
8694;SDS011;65580;49.446;6.854;2023-11-21T22:54:58;43.35;;;12.15;;
8694;SDS011;65580;49.446;6.854;2023-11-21T22:59:01;27.15;;;9.95;;
8694;SDS011;65580;49.446;6.854;2023-11-21T23:03:05;24.38;;;10.65;;
8694;SDS011;65580;49.446;6.854;2023-11-21T23:07:13;25.33;;;9.57;;
8694;SDS011;65580;49.446;6.854;2023-11-21T23:11:17;29.80;;;11.23;;
8694;SDS011;65580;49.446;6.854;2023-11-21T23:15:22;21.67;;;7.57;;
8694;SDS011;65580;49.446;6.854;2023-11-21T23:19:27;17.33;;;7.13;;
8694;SDS011;65580;49.446;6.854;2023-11-21T23:23:32;15.05;;;5.82;;
8694;SDS011;65580;49.446;6.854;2023-11-21T23:27:35;15.32;;;5.15;;
8694;SDS011;65580;49.446;6.854;2023-11-21T23:31:39;11.02;;;4.60;;
8694;SDS011;65580;49.446;6.854;2023-11-21T23:35:42;10.05;;;4.63;;
8694;SDS011;65580;49.446;6.854;2023-11-21T23:39:47;7.78;;;3.35;;
8694;SDS011;65580;49.446;6.854;2023-11-21T23:43:50;4.38;;;1.70;;
8694;SDS011;65580;49.446;6.854;2023-11-21T23:47:53;2.67;;;1.70;;
8694;SDS011;65580;49.446;6.854;2023-11-21T23:51:56;2.33;;;1.63;;
8694;SDS011;65580;49.446;6.854;2023-11-21T23:56:01;2.20;;;1.50;;
